createdAt,value
2023-04-05T00:01:20.812Z,0.34
2023-04-05T00:03:49.236Z,0.30
2023-04-05T00:06:17.317Z,0.28
2023-04-05T00:08:50.233Z,0.26
2023-04-05T00:11:18.626Z,0.21
2023-04-05T00:13:46.595Z,0.15
2023-04-05T00:16:15.728Z,0.12
2023-04-05T00:18:49.989Z,0.07
2023-04-05T00:24:08.303Z,0.03
2023-04-05T00:26:36.441Z,0.06
2023-04-05T00:29:04.925Z,0.06
2023-04-05T00:31:33.118Z,0.07
2023-04-05T00:34:01.378Z,0.10
2023-04-05T00:36:30.249Z,0.11
2023-04-05T00:38:58.218Z,0.11
2023-04-05T00:41:26.305Z,0.09
2023-04-05T00:43:54.406Z,0.05
2023-04-05T00:46:22.783Z,-0.02
2023-04-05T00:48:51.080Z,-0.11
2023-04-05T00:51:20.534Z,-0.16
2023-04-05T00:53:53.069Z,-0.16
2023-04-05T00:56:22.082Z,-0.16
2023-04-05T00:58:52.319Z,-0.18
2023-04-05T01:01:22.331Z,-0.16
2023-04-05T01:03:54.084Z,-0.17
2023-04-05T01:06:49.710Z,-0.18
2023-04-05T01:10:05.668Z,-0.19
2023-04-05T01:12:34.081Z,-0.21
2023-04-05T01:15:05.068Z,-0.23
2023-04-05T01:17:37.066Z,-0.23
2023-04-05T01:20:10.600Z,-0.24
2023-04-05T01:22:52.147Z,-0.25
2023-04-05T01:25:42.597Z,-0.27
2023-04-05T01:28:19.884Z,-0.28
2023-04-05T01:30:53.183Z,-0.30
2023-04-05T01:33:24.938Z,-0.30
2023-04-05T01:36:09.173Z,-0.30
2023-04-05T01:38:39.499Z,-0.32
2023-04-05T01:41:07.559Z,-0.35
2023-04-05T01:43:37.288Z,-0.36
2023-04-05T01:46:05.788Z,-0.35
2023-04-05T01:48:33.908Z,-0.35
2023-04-05T01:51:02.807Z,-0.36
2023-04-05T01:53:30.992Z,-0.36
2023-04-05T01:56:02.472Z,-0.35
2023-04-05T01:58:30.638Z,-0.41
2023-04-05T02:00:59.826Z,-0.45
2023-04-05T02:03:29.717Z,-0.45
2023-04-05T02:05:59.803Z,-0.45
2023-04-05T02:08:32.317Z,-0.47
2023-04-05T02:11:00.583Z,-0.50
2023-04-05T02:13:32.667Z,-0.46
2023-04-05T02:16:00.886Z,-0.43
2023-04-05T02:18:31.517Z,-0.42
2023-04-05T02:21:08.374Z,-0.40
2023-04-05T02:23:38.173Z,-0.44
2023-04-05T02:26:06.460Z,-0.47
2023-04-05T02:28:36.356Z,-0.48
2023-04-05T02:31:10.472Z,-0.48
2023-04-05T02:33:39.289Z,-0.48
2023-04-05T02:36:09.495Z,-0.47
2023-04-05T02:38:38.061Z,-0.46
2023-04-05T02:41:11.811Z,-0.42
2023-04-05T02:43:39.844Z,-0.39
2023-04-05T02:46:07.930Z,-0.35
2023-04-05T02:48:40.795Z,-0.32
2023-04-05T02:51:09.456Z,-0.30
2023-04-05T02:53:39.347Z,-0.27
2023-04-05T02:56:09.530Z,-0.20
2023-04-05T02:58:43.764Z,-0.16
2023-04-05T03:01:12.949Z,-0.17
2023-04-05T03:03:41.516Z,-0.22
2023-04-05T03:06:13.591Z,-0.27
2023-04-05T03:08:49.539Z,-0.31
2023-04-05T03:11:25.596Z,-0.33
2023-04-05T03:13:57.561Z,-0.36
2023-04-05T03:16:47.321Z,-0.42
2023-04-05T03:19:27.372Z,-0.46
2023-04-05T03:21:59.567Z,-0.51
2023-04-05T03:24:32.015Z,-0.53
2023-04-05T03:27:02.689Z,-0.52
2023-04-05T03:29:32.585Z,-0.53
2023-04-05T03:32:01.869Z,-0.55
2023-04-05T03:34:30.153Z,-0.58
2023-04-05T03:37:02.347Z,-0.63
2023-04-05T03:39:40.376Z,-0.67
2023-04-05T03:42:09.019Z,-0.72
2023-04-05T03:44:38.535Z,-0.77
2023-04-05T03:47:08.146Z,-0.80
2023-04-05T03:49:36.826Z,-0.79
2023-04-05T03:52:05.007Z,-0.79
2023-04-05T03:54:33.549Z,-0.82
2023-04-05T03:57:02.452Z,-0.85
2023-04-05T03:59:31.335Z,-0.89
2023-04-05T04:02:00.292Z,-0.89
2023-04-05T04:04:29.918Z,-0.90
2023-04-05T04:06:58.285Z,-0.92
2023-04-05T04:09:29.915Z,-0.96
2023-04-05T04:12:01.346Z,-1.01
2023-04-05T04:14:34.068Z,-1.05
2023-04-05T04:17:34.717Z,-1.08
2023-04-05T04:20:26.572Z,-1.11
2023-04-05T04:23:30.744Z,-1.10
2023-04-05T04:26:37.594Z,-1.09
2023-04-05T04:29:31.625Z,-1.03
2023-04-05T04:32:27.000Z,-0.99
2023-04-05T04:35:14.843Z,-0.99
2023-04-05T04:38:05.137Z,-1.00
2023-04-05T04:40:47.005Z,-0.97
2023-04-05T04:43:44.172Z,-0.92
2023-04-05T04:46:43.334Z,-0.89
2023-04-05T04:49:18.625Z,-0.88
2023-04-05T04:51:48.852Z,-0.86
2023-04-05T04:54:21.008Z,-0.82
2023-04-05T04:56:50.124Z,-0.79
2023-04-05T04:59:18.447Z,-0.80
2023-04-05T05:01:46.679Z,-0.84
2023-04-05T05:04:14.785Z,-0.85
2023-04-05T05:06:44.356Z,-0.86
2023-04-05T05:09:12.514Z,-0.85
2023-04-05T05:12:01.837Z,-0.82
2023-04-05T05:14:30.691Z,-0.84
2023-04-05T05:17:01.356Z,-0.84
2023-04-05T05:19:32.086Z,-0.84
2023-04-05T05:22:00.622Z,-0.85
2023-04-05T05:24:29.001Z,-0.85
2023-04-05T05:26:57.146Z,-0.86
2023-04-05T05:29:25.732Z,-0.84
2023-04-05T05:31:53.793Z,-0.78
2023-04-05T05:34:22.585Z,-0.70
2023-04-05T05:36:57.749Z,-0.63
2023-04-05T05:39:25.961Z,-0.58
2023-04-05T05:41:56.479Z,-0.52
2023-04-05T05:44:24.742Z,-0.45
2023-04-05T05:46:52.915Z,-0.36
2023-04-05T05:49:22.067Z,-0.34
2023-04-05T05:51:52.982Z,-0.30
2023-04-05T05:54:21.302Z,-0.23
2023-04-05T05:56:49.298Z,-0.21
2023-04-05T05:59:18.045Z,-0.19
2023-04-05T06:01:46.927Z,-0.13
2023-04-05T06:04:15.301Z,-0.07
2023-04-05T06:06:44.235Z,-0.06
2023-04-05T06:09:12.303Z,-0.05
2023-04-05T06:11:53.154Z,-0.05
2023-04-05T06:14:25.225Z,-0.04
2023-04-05T06:16:53.858Z,-0.05
2023-04-05T06:19:22.740Z,-0.06
2023-04-05T06:21:50.686Z,-0.05
2023-04-05T06:24:18.780Z,0.03
2023-04-05T06:26:47.081Z,0.06
2023-04-05T06:29:15.656Z,0.11
2023-04-05T06:31:46.553Z,0.16
2023-04-05T06:34:14.856Z,0.23
2023-04-05T06:36:47.714Z,0.33
2023-04-05T06:39:16.798Z,0.45
2023-04-05T06:41:45.061Z,0.50
2023-04-05T06:44:13.487Z,0.58
2023-04-05T06:46:41.412Z,0.67
2023-04-05T06:49:10.054Z,0.76
2023-04-05T06:51:38.184Z,0.87
2023-04-05T06:54:08.741Z,0.95
2023-04-05T07:00:51.696Z,1.12
2023-04-05T07:03:26.266Z,1.12
2023-04-05T07:05:59.500Z,1.14
2023-04-05T07:08:31.567Z,1.12
2023-04-05T07:10:59.940Z,1.13
2023-04-05T07:13:28.015Z,1.14
2023-04-05T07:16:01.000Z,1.17
2023-04-05T07:18:30.239Z,1.20
2023-04-05T07:21:03.746Z,1.20
2023-04-05T07:23:34.741Z,1.19
2023-04-05T07:26:04.844Z,1.15
2023-04-05T07:28:33.965Z,1.18
2023-04-05T07:31:02.964Z,1.21
2023-04-05T07:33:31.531Z,1.28
2023-04-05T07:35:59.726Z,1.37
2023-04-05T07:38:29.804Z,1.47
2023-04-05T07:40:58.946Z,1.53
2023-04-05T07:43:27.051Z,1.56
2023-04-05T07:46:01.844Z,1.57
2023-04-05T07:48:30.919Z,1.61
2023-04-05T07:51:09.164Z,1.68
2023-04-05T07:53:37.999Z,1.75
2023-04-05T07:56:07.429Z,1.77
2023-04-05T07:58:35.425Z,1.76
2023-04-05T08:01:03.686Z,1.78
2023-04-05T08:03:35.256Z,1.86
2023-04-05T08:06:09.910Z,1.95
2023-04-05T08:08:40.986Z,2.02
2023-04-05T08:11:13.161Z,2.10
2023-04-05T08:13:42.373Z,2.20
2023-04-05T08:16:11.453Z,2.12
2023-04-05T08:18:42.568Z,1.91
2023-04-05T08:21:11.182Z,1.83
2023-04-05T08:23:41.030Z,1.87
2023-04-05T08:26:09.177Z,1.97
2023-04-05T08:28:37.770Z,2.11
2023-04-05T08:31:06.241Z,2.24
2023-04-05T08:33:35.513Z,2.33
2023-04-05T08:36:08.117Z,2.34
2023-04-05T08:38:37.052Z,2.30
2023-04-05T08:41:26.376Z,2.25
2023-04-05T08:44:02.476Z,2.17
2023-04-05T08:46:32.185Z,2.09
2023-04-05T08:49:02.130Z,2.04
2023-04-05T08:51:30.389Z,2.05
2023-04-05T08:53:59.576Z,2.15
2023-04-05T08:56:37.105Z,2.31
2023-04-05T08:59:06.303Z,2.42
2023-04-05T09:01:38.770Z,2.35
2023-04-05T09:04:27.422Z,2.24
2023-04-05T09:06:56.826Z,2.12
2023-04-05T09:09:28.896Z,2.06
2023-04-05T09:11:58.193Z,2.02
2023-04-05T09:14:26.264Z,1.96
2023-04-05T09:16:54.522Z,1.93
2023-04-05T09:19:23.976Z,1.93
2023-04-05T09:22:02.839Z,2.01
2023-04-05T09:24:42.348Z,2.21
2023-04-05T09:27:14.085Z,2.43
2023-04-05T09:29:47.569Z,2.59
2023-04-05T09:32:18.387Z,2.61
2023-04-05T09:34:46.331Z,2.53
2023-04-05T09:37:22.377Z,2.49
2023-04-05T09:39:52.101Z,2.58
2023-04-05T09:42:23.336Z,2.73
2023-04-05T09:44:56.484Z,2.86
2023-04-05T09:47:25.935Z,3.00
2023-04-05T09:49:58.846Z,3.12
2023-04-05T09:52:34.283Z,3.21
2023-04-05T09:55:04.490Z,3.38
2023-04-05T09:57:39.779Z,3.57
2023-04-05T10:00:18.285Z,3.66
2023-04-05T10:02:48.006Z,3.79
2023-04-05T10:05:16.244Z,3.93
2023-04-05T10:07:45.439Z,4.06
2023-04-05T10:10:16.311Z,4.16
2023-04-05T10:12:45.787Z,4.24
2023-04-05T10:15:14.519Z,4.30
2023-04-05T10:17:51.618Z,4.27
2023-04-05T10:20:23.720Z,4.14
2023-04-05T10:22:52.258Z,4.12
2023-04-05T10:25:43.013Z,4.18
2023-04-05T10:28:35.352Z,4.15
2023-04-05T10:31:37.538Z,4.09
2023-04-05T10:34:08.279Z,4.15
2023-04-05T10:36:44.530Z,4.15
2023-04-05T10:39:16.005Z,4.22
2023-04-05T10:41:48.496Z,4.19
2023-04-05T10:44:25.853Z,4.10
2023-04-05T10:46:54.950Z,4.17
2023-04-05T10:49:37.851Z,4.30
2023-04-05T10:52:06.628Z,4.34
2023-04-05T10:54:36.770Z,4.31
2023-04-05T10:57:10.381Z,4.24
2023-04-05T10:59:44.791Z,4.15
2023-04-05T11:02:13.893Z,4.08
2023-04-05T11:04:43.002Z,4.05
2023-04-05T11:07:11.191Z,4.07
2023-04-05T11:09:40.397Z,4.08
2023-04-05T11:12:14.868Z,4.07
2023-04-05T11:14:44.673Z,4.05
2023-04-05T11:17:28.803Z,4.06
2023-04-05T11:20:04.776Z,4.09
2023-04-05T11:22:33.371Z,4.16
2023-04-05T11:25:03.384Z,4.25
2023-04-05T11:27:34.153Z,4.35
2023-04-05T11:30:03.024Z,4.46
2023-04-05T11:32:41.125Z,4.54
2023-04-05T11:35:18.208Z,4.75
2023-04-05T11:38:01.741Z,4.87
2023-04-05T11:40:31.569Z,4.86
2023-04-05T11:43:12.586Z,4.83
2023-04-05T11:45:42.181Z,4.94
2023-04-05T11:48:13.352Z,5.13
2023-04-05T11:50:47.608Z,5.29
2023-04-05T11:53:18.722Z,5.45
2023-04-05T11:55:51.372Z,5.70
2023-04-05T11:58:24.211Z,6.00
2023-04-05T12:01:02.897Z,6.39
2023-04-05T12:03:34.389Z,6.68
2023-04-05T12:06:04.501Z,6.92
2023-04-05T12:08:42.979Z,7.28
2023-04-05T12:11:15.796Z,7.57
2023-04-05T12:13:45.446Z,7.78
2023-04-05T12:16:13.527Z,8.08
2023-04-05T12:18:44.425Z,8.53
2023-04-05T12:21:13.106Z,9.02
2023-04-05T12:23:41.588Z,9.91
2023-04-05T12:26:09.959Z,11.11
2023-04-05T12:28:57.872Z,12.45
2023-04-05T12:31:45.704Z,12.86
2023-04-05T12:34:14.535Z,12.33
2023-04-05T12:36:46.202Z,11.50
2023-04-05T12:41:04.747Z,10.05
2023-04-05T12:43:43.145Z,9.32
2023-04-05T12:46:20.692Z,8.76
2023-04-05T12:48:53.479Z,8.35
2023-04-05T12:51:21.604Z,7.96
2023-04-05T12:53:49.589Z,7.45
2023-04-05T12:56:18.457Z,7.06
2023-04-05T12:58:51.219Z,6.72
2023-04-05T13:01:20.263Z,6.49
2023-04-05T13:03:50.059Z,6.35
2023-04-05T13:06:18.241Z,6.24
2023-04-05T13:08:46.815Z,6.22
2023-04-05T13:11:14.812Z,6.14
2023-04-05T13:13:45.521Z,5.95
2023-04-05T13:16:13.701Z,5.78
2023-04-05T13:18:42.269Z,5.59
2023-04-05T13:21:12.027Z,5.54
2023-04-05T13:23:41.870Z,5.43
2023-04-05T13:26:14.151Z,5.38
2023-04-05T13:28:42.454Z,5.38
2023-04-05T13:31:11.296Z,5.49
2023-04-05T13:33:41.324Z,5.59
2023-04-05T13:36:11.028Z,5.62
2023-04-05T13:38:40.341Z,5.59
2023-04-05T13:41:08.417Z,5.56
2023-04-05T13:43:36.578Z,5.48
2023-04-05T13:46:05.493Z,5.49
2023-04-05T13:48:34.173Z,5.46
2023-04-05T13:51:06.459Z,5.31
2023-04-05T13:53:35.218Z,5.19
2023-04-05T13:56:03.498Z,5.14
2023-04-05T13:58:32.085Z,5.15
2023-04-05T14:01:00.614Z,5.10
2023-04-05T14:03:36.152Z,5.02
2023-04-05T14:06:04.475Z,4.86
2023-04-05T14:08:32.419Z,4.72
2023-04-05T14:11:01.423Z,4.59
2023-04-05T14:13:31.621Z,4.51
2023-04-05T14:15:59.640Z,4.39
2023-04-05T14:18:27.765Z,4.22
2023-04-05T14:20:58.988Z,4.08
2023-04-05T14:23:27.244Z,4.03
2023-04-05T14:25:55.612Z,4.06
2023-04-05T14:28:24.203Z,4.13
2023-04-05T14:30:54.831Z,4.17
2023-04-05T14:33:24.645Z,4.18
2023-04-05T14:35:53.473Z,4.16
2023-04-05T14:38:28.567Z,4.08
2023-04-05T14:40:57.058Z,4.00
2023-04-05T14:43:27.945Z,3.91
2023-04-05T14:45:56.092Z,3.91
2023-04-05T14:48:24.450Z,3.95
2023-04-05T14:50:54.635Z,3.89
2023-04-05T14:53:22.725Z,3.80
2023-04-05T14:55:52.085Z,3.78
2023-04-05T14:58:20.513Z,3.77
2023-04-05T15:00:52.396Z,3.81
2023-04-05T15:03:22.301Z,3.85
2023-04-05T15:05:50.826Z,3.74
2023-04-05T15:08:18.962Z,3.52
2023-04-05T15:10:47.074Z,3.31
2023-04-05T15:13:15.837Z,3.18
2023-04-05T15:15:44.012Z,3.13
2023-04-05T15:18:21.070Z,3.09
2023-04-05T15:20:49.445Z,3.06
2023-04-05T15:23:17.638Z,3.11
2023-04-05T15:25:46.205Z,3.16
2023-04-05T15:28:14.903Z,3.22
2023-04-05T15:30:45.914Z,3.29
2023-04-05T15:33:14.525Z,3.31
2023-04-05T15:35:43.385Z,3.23
2023-04-05T15:38:12.524Z,3.17
2023-04-05T15:40:41.142Z,3.15
2023-04-05T15:43:09.808Z,3.11
2023-04-05T15:45:38.298Z,3.03
2023-04-05T15:48:06.552Z,2.94
2023-04-05T15:50:35.027Z,2.92
2023-04-05T15:53:03.194Z,2.93
2023-04-05T15:55:31.465Z,2.97
2023-04-05T15:57:59.600Z,2.97
2023-04-05T16:00:28.518Z,2.92
2023-04-05T16:03:00.765Z,2.89
2023-04-05T16:05:29.795Z,2.87
2023-04-05T16:07:59.928Z,2.84
2023-04-05T16:10:28.188Z,2.76
2023-04-05T16:13:01.229Z,2.68
2023-04-05T16:15:30.527Z,2.63
2023-04-05T16:17:58.657Z,2.64
2023-04-05T16:20:28.542Z,2.62
2023-04-05T16:22:57.573Z,2.55
2023-04-05T16:25:25.584Z,2.52
2023-04-05T16:27:56.574Z,2.51
2023-04-05T16:30:24.759Z,2.48
2023-04-05T16:32:53.364Z,2.46
2023-04-05T16:35:21.811Z,2.41
2023-04-05T16:37:50.287Z,2.37
2023-04-05T16:40:18.678Z,2.35
2023-04-05T16:42:47.364Z,2.34
2023-04-05T16:45:15.677Z,2.35
2023-04-05T16:47:44.147Z,2.36
2023-04-05T16:50:12.443Z,2.39
2023-04-05T16:52:41.197Z,2.40
2023-04-05T16:55:09.980Z,2.40
2023-04-05T16:57:39.100Z,2.38
2023-04-05T17:00:08.182Z,2.38
2023-04-05T17:02:38.516Z,2.38
2023-04-05T17:05:08.617Z,2.34
2023-04-05T17:07:37.751Z,2.33
2023-04-05T17:10:07.406Z,2.29
2023-04-05T17:12:51.976Z,2.27
2023-04-05T17:15:20.034Z,2.27
2023-04-05T17:17:48.459Z,2.27
2023-04-05T17:20:16.908Z,2.25
2023-04-05T17:22:46.464Z,2.25
2023-04-05T17:25:14.713Z,2.24
2023-04-05T17:27:42.792Z,2.21
2023-04-05T17:30:11.802Z,2.20
2023-04-05T17:32:52.228Z,2.19
2023-04-05T17:35:20.754Z,2.19
2023-04-05T17:37:49.474Z,2.19
2023-04-05T17:40:18.705Z,2.19
2023-04-05T17:42:46.848Z,2.19
2023-04-05T17:45:14.954Z,2.16
2023-04-05T17:47:44.450Z,2.16
2023-04-05T17:50:12.713Z,2.13
2023-04-05T17:52:41.146Z,2.08
2023-04-05T17:55:09.989Z,2.06
2023-04-05T17:57:39.288Z,2.03
2023-04-05T18:00:08.790Z,1.99
2023-04-05T18:02:40.895Z,1.94
2023-04-05T18:05:10.597Z,1.90
2023-04-05T18:07:38.842Z,1.89
2023-04-05T18:10:08.246Z,1.89
2023-04-05T18:12:36.758Z,1.87
2023-04-05T18:15:05.445Z,1.82
2023-04-05T18:17:34.460Z,1.79
2023-04-05T18:20:02.875Z,1.77
2023-04-05T18:22:37.916Z,1.75
2023-04-05T18:25:08.667Z,1.76
2023-04-05T18:27:39.195Z,1.77
2023-04-05T18:30:08.337Z,1.76
2023-04-05T18:32:39.289Z,1.74
2023-04-05T18:35:09.139Z,1.74
2023-04-05T18:37:37.815Z,1.73
2023-04-05T18:40:06.920Z,1.74
2023-04-05T18:42:40.190Z,1.75
2023-04-05T18:45:09.097Z,1.79
2023-04-05T18:47:37.316Z,1.81
2023-04-05T18:50:10.069Z,1.82
2023-04-05T18:52:38.226Z,1.82
2023-04-05T18:55:07.247Z,1.79
2023-04-05T18:57:36.434Z,1.75
2023-04-05T19:00:05.457Z,1.69
2023-04-05T19:02:35.247Z,1.67
2023-04-05T19:05:03.853Z,1.64
2023-04-05T19:07:33.094Z,1.62
2023-04-05T19:10:01.460Z,1.61
2023-04-05T19:12:29.604Z,1.61
2023-04-05T19:14:57.717Z,1.56
2023-04-05T19:17:25.798Z,1.51
2023-04-05T19:19:54.026Z,1.45
2023-04-05T19:22:23.028Z,1.40
2023-04-05T19:24:51.311Z,1.37
2023-04-05T19:27:22.935Z,1.39
2023-04-05T19:29:51.025Z,1.41
2023-04-05T19:32:19.173Z,1.45
2023-04-05T19:34:47.197Z,1.49
2023-04-05T19:37:16.048Z,1.48
2023-04-05T19:39:45.834Z,1.43
2023-04-05T19:42:14.777Z,1.38
2023-04-05T19:44:57.832Z,1.34
2023-04-05T19:47:27.267Z,1.33
2023-04-05T19:50:00.529Z,1.34
2023-04-05T19:52:38.246Z,1.31
2023-04-05T19:55:28.724Z,1.24
2023-04-05T19:57:57.155Z,1.14
2023-04-05T20:00:47.244Z,1.05
2023-04-05T20:03:32.299Z,0.97
2023-04-05T20:06:11.275Z,0.90
2023-04-05T20:08:41.320Z,0.84
2023-04-05T20:11:15.940Z,0.80
2023-04-05T20:13:50.827Z,0.77
2023-04-05T20:16:23.975Z,0.73
2023-04-05T20:18:53.032Z,0.67
2023-04-05T20:21:21.224Z,0.61
2023-04-05T20:23:49.371Z,0.54
2023-04-05T20:26:17.590Z,0.49
2023-04-05T20:28:56.865Z,0.48
2023-04-05T20:31:33.487Z,0.49
2023-04-05T20:34:15.040Z,0.49
2023-04-05T20:36:49.483Z,0.46
2023-04-05T20:39:18.663Z,0.44
2023-04-05T20:41:47.164Z,0.42
2023-04-05T20:44:15.917Z,0.34
2023-04-05T20:46:45.374Z,0.28
2023-04-05T20:49:14.115Z,0.25
2023-04-05T20:51:43.160Z,0.21
2023-04-05T20:54:11.888Z,0.18
2023-04-05T20:56:44.115Z,0.16
2023-04-05T20:59:12.320Z,0.14
2023-04-05T21:01:43.075Z,0.12
2023-04-05T21:04:12.162Z,0.11
2023-04-05T21:06:40.550Z,0.10
2023-04-05T21:09:09.433Z,0.09
2023-04-05T21:11:38.495Z,0.09
2023-04-05T21:14:08.529Z,0.10
2023-04-05T21:16:37.667Z,0.08
2023-04-05T21:19:06.621Z,0.06
2023-04-05T21:21:36.249Z,0.05
2023-04-05T21:24:04.873Z,0.08
2023-04-05T21:26:33.121Z,0.09
2023-04-05T21:29:03.843Z,0.12
2023-04-05T21:31:33.672Z,0.17
2023-04-05T21:34:01.971Z,0.18
2023-04-05T21:36:31.247Z,0.15
2023-04-05T21:38:59.499Z,0.10
2023-04-05T21:41:27.692Z,0.05
2023-04-05T21:43:56.733Z,0.02
2023-04-05T21:46:24.870Z,-0.02
2023-04-05T21:48:53.027Z,-0.01
2023-04-05T21:51:21.609Z,-0.02
2023-04-05T21:53:49.839Z,-0.03
2023-04-05T21:56:21.424Z,-0.03
2023-04-05T21:58:49.659Z,-0.03
2023-04-05T22:01:17.876Z,-0.05
2023-04-05T22:03:47.395Z,-0.09
2023-04-05T22:06:15.939Z,-0.11
2023-04-05T22:08:44.158Z,-0.13
2023-04-05T22:11:12.678Z,-0.19
2023-04-05T22:13:42.447Z,-0.19
2023-04-05T22:16:10.578Z,-0.21
2023-04-05T22:18:38.726Z,-0.23
2023-04-05T22:21:06.767Z,-0.25
2023-04-05T22:23:35.159Z,-0.26
2023-04-05T22:26:03.236Z,-0.26
2023-04-05T22:28:32.009Z,-0.29
2023-04-05T22:31:00.232Z,-0.31
2023-04-05T22:33:29.520Z,-0.33
2023-04-05T22:35:57.627Z,-0.33
2023-04-05T22:38:27.398Z,-0.31
2023-04-05T22:40:55.639Z,-0.32
2023-04-05T22:43:24.203Z,-0.34
2023-04-05T22:45:52.906Z,-0.35
2023-04-05T22:48:21.385Z,-0.32
2023-04-05T22:50:49.560Z,-0.35
2023-04-05T22:53:17.856Z,-0.37
2023-04-05T22:55:47.690Z,-0.37
2023-04-05T22:58:16.707Z,-0.36
2023-04-05T23:00:44.920Z,-0.36
2023-04-05T23:03:15.309Z,-0.37
2023-04-05T23:05:43.641Z,-0.40
2023-04-05T23:08:11.680Z,-0.42
2023-04-05T23:10:39.784Z,-0.44
2023-04-05T23:13:08.240Z,-0.49
2023-04-05T23:15:36.768Z,-0.50
2023-04-05T23:18:08.307Z,-0.51
2023-04-05T23:20:36.770Z,-0.52
2023-04-05T23:23:05.454Z,-0.52
2023-04-05T23:25:33.537Z,-0.53
2023-04-05T23:28:01.531Z,-0.57
2023-04-05T23:30:30.958Z,-0.59
2023-04-05T23:33:01.376Z,-0.61
2023-04-05T23:35:29.987Z,-0.63
2023-04-05T23:37:58.511Z,-0.64
2023-04-05T23:40:26.606Z,-0.66
2023-04-05T23:42:55.623Z,-0.66
2023-04-05T23:45:24.852Z,-0.65
2023-04-05T23:47:58.879Z,-0.65
2023-04-05T23:50:27.542Z,-0.68
2023-04-05T23:52:55.590Z,-0.72
2023-04-05T23:55:26.333Z,-0.75
2023-04-05T23:57:57.914Z,-0.79
